Time;durP1;ratioP1;P1;durP2;ratioP2;P2;SDS_P1;SDS_P2;PMS_P1;PMS_P2;Temp;Humidity;BMP_temperature;BMP_pressure;BME280_temperature;BME280_humidity;BME280_pressure;Samples;Min_cycle;Max_cycle;Signal;HPM_P1;HPM_P2
2021/09/16 00:00:04;;;;;;;62.30;32.42;;;11.60;70.80;;;;;;5053221;28;20025;-70
2021/09/16 00:02:29;;;;;;;67.03;31.35;;;11.60;71.00;;;;;;5056893;28;20433;-69
2021/09/16 00:04:55;;;;;;;67.70;35.45;;;11.50;71.10;;;;;;5057397;28;20049;-68
2021/09/16 00:07:21;;;;;;;69.47;34.83;;;11.50;71.10;;;;;;5056671;28;20072;-68
2021/09/16 00:09:46;;;;;;;61.30;29.20;;;11.50;71.10;;;;;;5056683;28;20495;-69
2021/09/16 00:12:12;;;;;;;63.92;31.98;;;11.40;71.50;;;;;;5055350;28;20456;-69
2021/09/16 00:14:37;;;;;;;64.50;31.88;;;11.40;71.60;;;;;;5055090;28;20029;-69
2021/09/16 00:17:03;;;;;;;53.92;31.13;;;11.40;71.80;;;;;;5056820;28;20025;-68
2021/09/16 00:19:29;;;;;;;52.50;29.02;;;11.30;72.00;;;;;;5056329;28;20099;-68
2021/09/16 00:21:54;;;;;;;48.72;25.80;;;11.20;72.30;;;;;;5054248;28;20029;-68
2021/09/16 00:24:20;;;;;;;45.50;25.75;;;11.20;72.50;;;;;;5056576;28;20112;-69
2021/09/16 00:26:46;;;;;;;47.25;25.92;;;11.20;72.80;;;;;;5056322;28;20436;-68
2021/09/16 00:29:11;;;;;;;45.22;22.88;;;11.30;72.80;;;;;;5055922;28;20112;-70
2021/09/16 00:31:37;;;;;;;44.75;24.83;;;11.30;72.80;;;;;;5056184;28;20025;-69
2021/09/16 00:34:03;;;;;;;47.28;26.65;;;11.40;72.90;;;;;;5056503;28;20379;-68
2021/09/16 00:36:29;;;;;;;47.15;25.33;;;11.40;72.90;;;;;;5056164;28;20040;-68
2021/09/16 00:38:55;;;;;;;45.10;25.42;;;11.40;72.90;;;;;;5056210;28;20063;-68
2021/09/16 00:41:20;;;;;;;45.65;23.45;;;11.40;73.10;;;;;;5055750;28;20044;-69
2021/09/16 00:43:46;;;;;;;45.03;23.63;;;11.30;73.20;;;;;;5056241;28;20524;-69
2021/09/16 00:46:12;;;;;;;51.38;25.35;;;11.30;73.20;;;;;;5054653;28;20074;-69
2021/09/16 00:48:37;;;;;;;45.25;22.60;;;11.30;73.40;;;;;;5054910;28;20029;-68
2021/09/16 00:51:03;;;;;;;42.80;20.85;;;11.20;73.50;;;;;;5054591;28;20429;-69
2021/09/16 00:53:30;;;;;;;35.30;19.95;;;11.20;73.60;;;;;;5055790;28;20171;-69
2021/09/16 00:55:58;;;;;;;35.70;19.98;;;11.30;73.50;;;;;;5055768;28;20033;-69
2021/09/16 00:58:24;;;;;;;36.55;19.55;;;11.30;73.20;;;;;;5054459;28;20032;-69
2021/09/16 01:00:50;;;;;;;35.38;19.25;;;11.40;73.10;;;;;;5055916;28;20039;-68
2021/09/16 01:03:16;;;;;;;44.78;22.45;;;11.40;72.80;;;;;;5054385;28;20119;-69
2021/09/16 01:05:41;;;;;;;43.28;23.58;;;11.40;72.60;;;;;;5053864;28;20064;-68
2021/09/16 01:08:07;;;;;;;35.22;20.48;;;11.40;72.20;;;;;;5055363;28;20078;-70
2021/09/16 01:10:33;;;;;;;39.00;20.75;;;11.20;72.30;;;;;;5055230;28;20452;-69
2021/09/16 01:12:59;;;;;;;35.00;18.75;;;11.20;72.70;;;;;;5055433;28;20025;-69
2021/09/16 01:15:25;;;;;;;41.10;22.55;;;11.10;72.80;;;;;;5054090;28;20029;-68
2021/09/16 01:17:50;;;;;;;46.55;26.00;;;11.10;73.00;;;;;;5053970;28;20099;-68
2021/09/16 01:20:16;;;;;;;47.80;25.23;;;11.00;72.90;;;;;;5055356;28;20032;-69
2021/09/16 01:22:42;;;;;;;52.40;28.23;;;10.90;72.80;;;;;;5055111;28;20033;-69
2021/09/16 01:25:08;;;;;;;46.40;26.45;;;10.80;72.90;;;;;;5054936;28;20078;-68
2021/09/16 01:27:35;;;;;;;47.17;25.48;;;10.70;73.10;;;;;;5053849;28;20036;-68
2021/09/16 01:30:03;;;;;;;43.38;25.23;;;10.60;73.60;;;;;;5053960;28;20479;-69
2021/09/16 01:32:29;;;;;;;47.83;25.30;;;10.50;73.90;;;;;;5052984;28;20036;-69
2021/09/16 01:34:55;;;;;;;46.65;25.50;;;10.50;74.00;;;;;;5053125;28;20032;-68
2021/09/16 01:37:20;;;;;;;46.83;24.88;;;10.50;74.00;;;;;;5053627;28;20082;-68
2021/09/16 01:39:46;;;;;;;45.22;23.52;;;10.40;74.00;;;;;;5054698;28;20099;-69
2021/09/16 01:42:12;;;;;;;44.88;24.50;;;10.50;74.40;;;;;;5054883;28;20032;-69
2021/09/16 01:44:38;;;;;;;46.05;25.10;;;10.50;74.60;;;;;;5054945;28;20035;-69
2021/09/16 01:47:05;;;;;;;51.72;26.02;;;10.40;74.70;;;;;;5053163;28;20033;-71
2021/09/16 01:49:31;;;;;;;46.88;27.02;;;10.40;75.10;;;;;;5035402;28;20033;-69
2021/09/16 01:51:57;;;;;;;37.45;19.90;;;10.40;75.40;;;;;;5033331;28;20026;-69
2021/09/16 01:54:23;;;;;;;41.17;19.38;;;10.40;75.90;;;;;;5033399;28;20563;-69
2021/09/16 01:56:49;;;;;;;40.38;21.13;;;10.40;76.00;;;;;;5034684;28;20056;-71
2021/09/16 01:59:15;;;;;;;36.88;20.63;;;10.40;75.90;;;;;;5033715;28;20030;-68
2021/09/16 02:01:40;;;;;;;35.47;20.55;;;10.50;75.80;;;;;;5034883;28;20034;-68
2021/09/16 02:04:06;;;;;;;33.97;19.30;;;10.50;76.00;;;;;;5034412;28;20086;-69
2021/09/16 02:06:31;;;;;;;34.33;19.13;;;10.50;75.70;;;;;;5039978;28;20071;-68
2021/09/16 02:08:57;;;;;;;37.22;18.98;;;10.60;75.70;;;;;;5041058;28;20032;-69
2021/09/16 02:11:23;;;;;;;32.78;18.90;;;10.60;75.50;;;;;;5044229;28;20033;-69
2021/09/16 02:13:48;;;;;;;30.50;17.75;;;10.70;75.50;;;;;;5052760;28;20032;-69
2021/09/16 02:16:14;;;;;;;25.55;16.52;;;10.70;75.50;;;;;;5054271;28;20029;-68
2021/09/16 02:18:40;;;;;;;28.00;16.13;;;10.70;75.40;;;;;;5054121;28;20056;-69
2021/09/16 02:21:05;;;;;;;33.15;16.23;;;10.70;75.40;;;;;;5048149;28;20040;-69
2021/09/16 02:23:31;;;;;;;35.00;15.90;;;10.60;75.60;;;;;;5036402;28;20029;-69
2021/09/16 02:25:57;;;;;;;31.95;16.70;;;10.70;75.60;;;;;;5035164;28;20049;-69
2021/09/16 02:28:22;;;;;;;36.30;16.15;;;10.70;75.50;;;;;;5034133;28;20036;-69
2021/09/16 02:30:48;;;;;;;45.40;16.05;;;10.70;75.70;;;;;;5038667;28;20037;-69
2021/09/16 02:33:14;;;;;;;44.47;16.35;;;10.70;75.60;;;;;;5046111;28;20022;-68
2021/09/16 02:35:39;;;;;;;50.65;17.30;;;10.80;75.40;;;;;;5035722;28;20078;-68
2021/09/16 02:38:06;;;;;;;52.25;16.80;;;10.70;75.40;;;;;;5050205;28;20032;-69
2021/09/16 02:40:31;;;;;;;40.63;17.73;;;10.70;75.60;;;;;;5051775;28;20079;-69
2021/09/16 02:42:57;;;;;;;37.97;14.35;;;10.70;75.70;;;;;;5053861;28;20029;-69
2021/09/16 02:45:23;;;;;;;40.58;16.08;;;10.80;75.60;;;;;;5050330;28;20127;-69
2021/09/16 02:47:49;;;;;;;29.75;14.27;;;10.80;75.40;;;;;;5040237;28;20453;-68
2021/09/16 02:50:15;;;;;;;39.58;15.98;;;10.80;75.50;;;;;;5051348;28;20518;-69
2021/09/16 02:52:40;;;;;;;37.67;15.43;;;10.80;75.40;;;;;;5053626;28;20356;-69
2021/09/16 02:55:07;;;;;;;33.25;16.58;;;10.80;75.30;;;;;;5045155;28;20048;-69
2021/09/16 02:57:33;;;;;;;39.38;16.80;;;10.80;75.20;;;;;;5049250;28;20436;-68
2021/09/16 02:59:58;;;;;;;43.42;17.48;;;10.80;75.30;;;;;;5033705;28;20152;-69
2021/09/16 03:02:24;;;;;;;44.35;17.90;;;10.80;75.30;;;;;;5046670;28;20115;-68
2021/09/16 03:04:50;;;;;;;35.80;17.58;;;10.80;75.20;;;;;;5053397;28;20215;-68
2021/09/16 03:07:17;;;;;;;42.78;18.38;;;10.80;75.20;;;;;;5047097;28;20098;-69
2021/09/16 03:09:42;;;;;;;38.33;18.65;;;10.70;75.10;;;;;;5044931;28;20041;-69
2021/09/16 03:12:08;;;;;;;28.52;16.15;;;10.60;75.00;;;;;;5050899;28;20040;-69
2021/09/16 03:14:34;;;;;;;33.67;17.55;;;10.60;75.50;;;;;;5032166;28;20025;-69
2021/09/16 03:16:59;;;;;;;40.50;17.88;;;10.60;75.80;;;;;;5032166;28;20025;-69
2021/09/16 03:19:25;;;;;;;32.65;17.27;;;10.60;75.80;;;;;;5034343;28;20026;-68
2021/09/16 03:21:50;;;;;;;31.55;17.40;;;10.60;75.90;;;;;;5033404;28;20025;-69
2021/09/16 03:24:16;;;;;;;33.58;16.88;;;10.60;75.90;;;;;;5031938;28;20495;-69
2021/09/16 03:26:42;;;;;;;41.25;17.67;;;10.60;76.00;;;;;;5033185;28;20033;-68
2021/09/16 03:29:07;;;;;;;31.25;16.83;;;10.60;76.20;;;;;;5032238;28;20434;-69
2021/09/16 03:31:33;;;;;;;35.13;15.90;;;10.60;76.40;;;;;;5040802;28;20025;-68
2021/09/16 03:33:59;;;;;;;35.13;16.08;;;10.70;76.50;;;;;;5031939;28;20030;-69
2021/09/16 03:36:24;;;;;;;30.13;15.63;;;10.80;76.40;;;;;;5032441;28;20060;-70
2021/09/16 03:38:50;;;;;;;28.52;15.32;;;10.90;76.20;;;;;;5049178;28;20068;-69
2021/09/16 03:41:16;;;;;;;44.45;16.40;;;11.10;76.00;;;;;;5053356;28;20017;-69
2021/09/16 03:43:41;;;;;;;28.92;15.85;;;11.20;75.80;;;;;;5053198;28;20077;-69
2021/09/16 03:46:07;;;;;;;30.35;16.23;;;11.40;75.60;;;;;;5052696;28;20037;-69
2021/09/16 03:48:32;;;;;;;32.53;18.17;;;11.70;75.20;;;;;;5045527;28;20029;-69
2021/09/16 03:50:58;;;;;;;38.50;19.40;;;12.00;74.40;;;;;;5033090;28;20030;-70
2021/09/16 03:53:24;;;;;;;34.55;18.30;;;12.10;73.40;;;;;;5045075;28;20021;-69
2021/09/16 03:55:49;;;;;;;33.38;17.10;;;12.20;72.80;;;;;;5051583;28;20120;-69
2021/09/16 03:58:15;;;;;;;33.60;17.13;;;12.30;72.60;;;;;;5054754;28;20025;-69
2021/09/16 04:00:41;;;;;;;30.55;17.30;;;12.30;72.20;;;;;;5050927;28;20392;-69
2021/09/16 04:03:10;;;;;;;27.48;16.02;;;12.40;72.10;;;;;;5051574;28;20025;-69
2021/09/16 04:05:38;;;;;;;28.50;16.70;;;12.50;71.70;;;;;;5051123;28;20085;-69
2021/09/16 04:08:05;;;;;;;28.42;16.98;;;12.50;71.50;;;;;;5036366;28;20057;-70
2021/09/16 04:10:31;;;;;;;38.58;18.52;;;12.60;71.40;;;;;;5047166;28;20033;-69
2021/09/16 04:12:57;;;;;;;36.40;19.30;;;12.50;71.30;;;;;;5048097;28;20029;-69
2021/09/16 04:15:23;;;;;;;41.67;20.85;;;12.50;71.30;;;;;;5055081;28;20056;-70
2021/09/16 04:17:49;;;;;;;38.65;19.30;;;12.50;71.40;;;;;;5054524;28;20439;-69
2021/09/16 04:20:14;;;;;;;41.58;20.50;;;12.60;71.50;;;;;;5040009;28;20060;-70
2021/09/16 04:22:40;;;;;;;42.90;20.02;;;12.60;71.50;;;;;;5068513;28;20029;-71
2021/09/16 04:25:06;;;;;;;37.20;19.63;;;12.60;71.50;;;;;;5055637;28;20096;-72
2021/09/16 04:27:32;;;;;;;35.97;18.45;;;12.70;71.50;;;;;;5054452;28;20029;-69
2021/09/16 04:29:58;;;;;;;34.80;18.23;;;12.80;71.40;;;;;;5049209;28;20087;-75
2021/09/16 04:32:23;;;;;;;35.92;19.05;;;12.80;71.20;;;;;;5045925;28;20053;-75
2021/09/16 04:34:49;;;;;;;31.75;17.60;;;12.90;71.00;;;;;;5035937;28;20471;-73
2021/09/16 04:37:15;;;;;;;36.80;19.25;;;13.00;70.50;;;;;;5044372;28;20029;-73
2021/09/16 04:39:40;;;;;;;34.45;18.58;;;13.00;70.50;;;;;;5044878;28;20030;-73
2021/09/16 04:42:06;;;;;;;30.35;18.95;;;13.00;70.70;;;;;;5034646;28;20033;-73
2021/09/16 04:44:33;;;;;;;45.00;19.67;;;13.10;70.70;;;;;;5034640;28;20036;-73
2021/09/16 04:46:59;;;;;;;39.63;19.38;;;13.30;70.60;;;;;;5050767;28;20060;-73
2021/09/16 04:49:25;;;;;;;38.88;20.10;;;13.40;70.50;;;;;;5042942;28;20033;-74
2021/09/16 04:51:51;;;;;;;38.80;20.08;;;13.40;70.10;;;;;;5039970;28;20097;-72
2021/09/16 04:54:16;;;;;;;36.00;19.92;;;13.50;70.50;;;;;;5046665;28;20032;-73
2021/09/16 04:56:42;;;;;;;42.33;19.85;;;13.60;70.50;;;;;;5035429;28;20388;-73
2021/09/16 04:59:08;;;;;;;41.60;20.00;;;13.80;70.40;;;;;;5042775;28;20380;-72
2021/09/16 05:01:33;;;;;;;49.95;22.52;;;13.90;70.30;;;;;;5036840;28;20033;-73
2021/09/16 05:03:59;;;;;;;40.20;22.92;;;14.00;69.70;;;;;;5044829;28;20036;-74
2021/09/16 05:06:25;;;;;;;48.85;22.58;;;14.20;69.40;;;;;;5050318;28;20140;-73
2021/09/16 05:08:51;;;;;;;44.17;21.23;;;14.40;69.20;;;;;;5034172;28;20044;-72
2021/09/16 05:11:16;;;;;;;46.33;21.60;;;14.60;68.90;;;;;;5040269;28;20021;-72
2021/09/16 05:13:42;;;;;;;44.67;22.35;;;14.70;68.40;;;;;;5035007;28;20030;-73
2021/09/16 05:16:07;;;;;;;46.25;24.00;;;14.80;68.40;;;;;;5057372;28;20033;-73
2021/09/16 05:18:33;;;;;;;43.83;23.80;;;14.90;68.60;;;;;;5042289;28;20091;-71
2021/09/16 05:20:59;;;;;;;51.45;26.08;;;14.90;68.50;;;;;;5046222;28;20137;-73
2021/09/16 05:23:24;;;;;;;56.63;29.67;;;15.20;68.90;;;;;;5043176;28;20460;-74
2021/09/16 05:25:50;;;;;;;57.85;31.17;;;15.60;68.60;;;;;;5034271;28;20049;-73
2021/09/16 05:28:16;;;;;;;63.47;36.53;;;16.30;67.50;;;;;;5052393;28;20025;-74
2021/09/16 05:30:41;;;;;;;61.65;35.40;;;17.10;66.30;;;;;;5054551;28;20460;-73
2021/09/16 05:33:09;;;;;;;54.72;32.45;;;18.00;64.20;;;;;;5040877;28;20028;-72
2021/09/16 05:35:36;;;;;;;55.33;31.35;;;19.00;62.10;;;;;;5050664;28;20067;-73
2021/09/16 05:38:03;;;;;;;58.45;31.45;;;19.80;59.80;;;;;;5048151;28;20131;-77
2021/09/16 05:40:28;;;;;;;50.88;30.40;;;20.60;57.90;;;;;;5035755;28;20025;-72
2021/09/16 05:42:54;;;;;;;50.33;29.20;;;21.10;55.90;;;;;;5045653;28;20021;-72
2021/09/16 05:45:20;;;;;;;50.70;28.30;;;21.70;54.90;;;;;;5052218;28;20047;-71
2021/09/16 05:47:46;;;;;;;48.83;26.58;;;22.10;53.80;;;;;;5048907;28;20460;-71
2021/09/16 05:50:12;;;;;;;43.28;25.13;;;22.50;53.20;;;;;;5046878;28;20060;-72
2021/09/16 05:52:37;;;;;;;43.17;22.92;;;23.00;52.50;;;;;;5040352;28;20021;-78
2021/09/16 05:55:05;;;;;;;44.90;22.15;;;23.40;51.40;;;;;;5044483;28;20044;-81
2021/09/16 05:57:30;;;;;;;41.67;21.50;;;23.80;50.50;;;;;;5033305;28;20037;-71
2021/09/16 05:59:56;;;;;;;38.90;20.50;;;24.20;49.90;;;;;;5046241;28;20071;-82
2021/09/16 06:02:22;;;;;;;39.83;20.23;;;24.40;49.40;;;;;;5039690;28;20083;-71
2021/09/16 06:04:47;;;;;;;38.20;19.15;;;24.70;48.80;;;;;;5034396;28;20049;-72
2021/09/16 06:07:13;;;;;;;32.38;19.67;;;25.10;48.40;;;;;;5033212;28;20067;-71
2021/09/16 06:09:39;;;;;;;36.85;19.02;;;25.50;48.00;;;;;;5033335;28;20025;-72
2021/09/16 06:12:07;;;;;;;34.10;18.00;;;26.10;47.40;;;;;;5034255;28;20029;-69
2021/09/16 06:14:33;;;;;;;32.35;17.50;;;26.60;46.60;;;;;;5034167;28;20032;-71
2021/09/16 06:16:59;;;;;;;39.30;18.35;;;26.80;46.10;;;;;;5033988;28;20025;-70
2021/09/16 06:19:25;;;;;;;31.25;17.92;;;27.10;45.30;;;;;;5033940;28;20032;-68
2021/09/16 06:21:51;;;;;;;32.35;18.20;;;27.20;45.00;;;;;;5034220;28;20030;-65
2021/09/16 06:24:17;;;;;;;27.75;18.10;;;27.30;45.00;;;;;;5034188;28;20029;-65
2021/09/16 06:26:42;;;;;;;24.92;16.38;;;27.60;44.80;;;;;;5032044;28;20037;-75
2021/09/16 06:29:10;;;;;;;29.77;17.00;;;27.90;44.40;;;;;;5034079;28;20029;-78
2021/09/16 06:31:36;;;;;;;31.88;16.55;;;28.30;43.80;;;;;;5033717;28;20025;-81
2021/09/16 06:34:01;;;;;;;26.33;15.85;;;28.70;43.50;;;;;;5034168;28;20084;-80
2021/09/16 06:36:27;;;;;;;28.25;15.48;;;29.00;42.80;;;;;;5032976;28;20029;-78
2021/09/16 06:38:53;;;;;;;24.35;15.20;;;29.40;42.10;;;;;;5033971;28;20025;-79
2021/09/16 06:41:18;;;;;;;28.75;14.70;;;29.40;41.70;;;;;;5032461;28;20061;-79
2021/09/16 06:43:44;;;;;;;26.80;15.95;;;29.10;41.60;;;;;;5032642;28;20026;-83
2021/09/16 06:46:11;;;;;;;29.40;15.82;;;28.90;41.80;;;;;;5032146;28;20462;-76
2021/09/16 06:48:37;;;;;;;29.63;16.52;;;28.80;41.90;;;;;;5032928;28;20419;-67
2021/09/16 06:51:02;;;;;;;29.83;16.15;;;29.20;41.90;;;;;;5033775;28;20032;-69
2021/09/16 06:53:28;;;;;;;26.33;16.17;;;29.60;41.60;;;;;;5032505;28;20472;-68
2021/09/16 06:55:54;;;;;;;22.20;13.35;;;29.90;40.60;;;;;;5032310;28;20025;-69
2021/09/16 06:58:19;;;;;;;26.88;14.25;;;30.10;39.40;;;;;;5033793;28;20064;-70
2021/09/16 07:00:45;;;;;;;20.77;11.43;;;30.20;39.10;;;;;;5033552;28;20025;-70
2021/09/16 07:03:11;;;;;;;18.95;11.75;;;30.40;38.80;;;;;;5033300;28;20022;-70
2021/09/16 07:05:36;;;;;;;23.17;13.60;;;30.60;37.60;;;;;;5031998;28;20096;-70
2021/09/16 07:08:02;;;;;;;33.70;15.40;;;30.70;37.30;;;;;;5033791;28;20026;-70
2021/09/16 07:10:28;;;;;;;28.65;16.77;;;30.70;37.20;;;;;;5032323;28;20054;-70
2021/09/16 07:12:54;;;;;;;28.90;17.23;;;30.70;37.30;;;;;;5033474;28;20026;-69
2021/09/16 07:15:19;;;;;;;22.38;14.40;;;31.00;36.90;;;;;;5033357;28;20029;-70
2021/09/16 07:17:45;;;;;;;28.65;15.40;;;30.90;36.20;;;;;;5032234;28;20030;-70
2021/09/16 07:20:11;;;;;;;24.45;14.25;;;30.80;36.20;;;;;;5033563;28;20029;-70
2021/09/16 07:22:38;;;;;;;20.73;9.68;;;31.00;36.30;;;;;;5033622;28;20483;-70
2021/09/16 07:25:06;;;;;;;26.13;12.02;;;31.00;34.90;;;;;;5033150;28;20368;-70
2021/09/16 07:27:32;;;;;;;22.65;11.95;;;31.30;34.70;;;;;;5033286;28;20056;-70
2021/09/16 07:29:58;;;;;;;29.67;14.38;;;31.60;34.30;;;;;;5033118;28;20029;-70
2021/09/16 07:32:24;;;;;;;27.30;13.77;;;31.70;34.00;;;;;;5035612;28;20108;-70
2021/09/16 07:34:49;;;;;;;34.03;14.65;;;31.90;34.80;;;;;;5036134;28;20140;-68
2021/09/16 07:37:15;;;;;;;32.47;17.42;;;32.00;34.00;;;;;;5036087;28;20030;-69
2021/09/16 07:39:41;;;;;;;44.30;23.15;;;31.90;33.80;;;;;;5035999;28;20026;-70
2021/09/16 07:42:07;;;;;;;41.47;25.90;;;31.90;34.40;;;;;;5037468;28;20025;-70
2021/09/16 07:44:33;;;;;;;32.15;22.17;;;31.90;35.00;;;;;;5035738;28;20041;-70
2021/09/16 07:46:59;;;;;;;38.38;22.60;;;31.80;36.00;;;;;;5035752;28;20034;-70
2021/09/16 07:49:25;;;;;;;42.83;28.55;;;31.50;36.20;;;;;;5035610;28;20076;-69
2021/09/16 07:51:50;;;;;;;59.53;46.05;;;31.40;37.00;;;;;;5036786;28;20066;-70
2021/09/16 07:54:16;;;;;;;50.20;33.40;;;31.60;37.20;;;;;;5035619;28;20026;-70
2021/09/16 07:56:42;;;;;;;39.35;29.45;;;31.40;36.50;;;;;;5036949;28;20022;-69
2021/09/16 07:59:08;;;;;;;30.08;18.23;;;31.40;36.30;;;;;;5036847;28;20028;-71
2021/09/16 08:01:35;;;;;;;28.95;18.00;;;31.60;35.40;;;;;;5036039;28;20029;-70
2021/09/16 08:04:04;;;;;;;22.27;11.32;;;32.00;34.70;;;;;;5036564;28;20037;-70
2021/09/16 08:06:30;;;;;;;20.88;12.80;;;32.20;33.60;;;;;;5035327;28;20495;-69
2021/09/16 08:08:56;;;;;;;19.40;12.60;;;32.10;32.20;;;;;;5035454;28;20120;-70
2021/09/16 08:11:22;;;;;;;22.10;11.65;;;32.00;31.70;;;;;;5036498;28;20420;-70
2021/09/16 08:13:47;;;;;;;36.08;14.77;;;32.10;31.70;;;;;;5035336;28;20116;-70
2021/09/16 08:16:13;;;;;;;26.08;11.10;;;32.30;32.80;;;;;;5035918;28;20526;-70
2021/09/16 08:18:39;;;;;;;23.20;9.75;;;32.50;32.90;;;;;;5036594;28;20030;-70
2021/09/16 08:21:04;;;;;;;29.92;9.45;;;32.60;32.70;;;;;;5035538;28;20454;-70
2021/09/16 08:23:30;;;;;;;12.80;7.85;;;32.60;32.60;;;;;;5035241;28;20144;-69
2021/09/16 08:25:56;;;;;;;20.02;7.20;;;32.70;31.70;;;;;;5036470;28;20068;-70
2021/09/16 08:28:22;;;;;;;24.45;7.47;;;32.70;31.30;;;;;;5036275;28;20041;-70
2021/09/16 08:30:48;;;;;;;9.00;4.63;;;32.60;31.30;;;;;;5036767;28;20456;-70
2021/09/16 08:33:15;;;;;;;14.70;4.90;;;32.50;30.60;;;;;;5036191;28;20025;-69
2021/09/16 08:35:41;;;;;;;12.50;4.53;;;32.60;30.70;;;;;;5036264;28;20112;-70
2021/09/16 08:38:06;;;;;;;23.95;5.05;;;32.70;30.90;;;;;;5034827;28;20460;-74
2021/09/16 08:40:32;;;;;;;11.52;3.97;;;32.70;30.70;;;;;;5034614;28;20379;-70
2021/09/16 08:43:00;;;;;;;12.00;4.53;;;32.70;30.50;;;;;;5034149;28;20029;-70
2021/09/16 08:45:25;;;;;;;11.05;3.50;;;32.60;30.40;;;;;;5035025;28;20400;-70
2021/09/16 08:47:53;;;;;;;11.82;3.42;;;32.50;30.20;;;;;;5034961;28;20033;-70
2021/09/16 08:50:22;;;;;;;8.60;2.55;;;32.60;29.90;;;;;;5035562;28;20029;-70
2021/09/16 08:52:48;;;;;;;10.75;2.88;;;32.80;29.70;;;;;;5034502;28;20026;-68
2021/09/16 08:55:16;;;;;;;10.38;3.40;;;32.80;29.70;;;;;;5034148;28;20026;-71
2021/09/16 08:57:44;;;;;;;5.35;3.00;;;32.70;30.00;;;;;;5035681;28;20039;-73
2021/09/16 09:00:16;;;;;;;11.00;2.55;;;32.80;29.90;;;;;;5035685;28;20080;-69
2021/09/16 09:02:45;;;;;;;6.18;2.50;;;32.80;29.60;;;;;;5034626;28;20474;-70
2021/09/16 09:05:11;;;;;;;6.07;1.92;;;32.80;29.70;;;;;;5034060;28;20136;-70
2021/09/16 09:07:41;;;;;;;8.02;2.10;;;32.90;29.40;;;;;;5035586;28;20029;-71
2021/09/16 09:10:09;;;;;;;10.25;2.75;;;33.10;30.00;;;;;;5035494;28;20079;-70
2021/09/16 09:12:36;;;;;;;7.38;2.00;;;33.20;30.00;;;;;;5034262;28;20031;-70
2021/09/16 09:15:05;;;;;;;5.97;1.90;;;33.20;29.70;;;;;;5034246;28;20061;-70
2021/09/16 09:17:33;;;;;;;6.40;1.98;;;33.20;29.80;;;;;;5035564;28;20109;-68
2021/09/16 09:20:06;;;;;;;8.63;2.08;;;33.30;29.60;;;;;;5035616;28;20033;-70
2021/09/16 09:22:39;;;;;;;6.93;2.30;;;33.30;29.20;;;;;;5035142;28;20112;-72
2021/09/16 09:25:10;;;;;;;6.87;1.60;;;33.20;29.20;;;;;;5035219;28;20076;-70
2021/09/16 09:27:39;;;;;;;5.63;2.92;;;33.20;28.40;;;;;;5033953;28;20029;-70
2021/09/16 09:30:14;;;;;;;7.88;2.38;;;33.20;28.60;;;;;;5034824;28;20034;-69
2021/09/16 09:32:49;;;;;;;5.88;2.00;;;33.10;28.50;;;;;;5033712;28;20030;-70
2021/09/16 09:35:35;;;;;;;10.07;2.22;;;33.20;29.00;;;;;;5035104;28;20029;-70
2021/09/16 09:38:14;;;;;;;7.32;1.67;;;33.20;29.00;;;;;;5035069;28;20234;-70
2021/09/16 09:40:41;;;;;;;9.85;1.88;;;33.30;28.40;;;;;;5033640;28;20033;-70
2021/09/16 09:43:35;;;;;;;6.80;2.00;;;33.40;28.60;;;;;;5033690;28;20052;-70
2021/09/16 09:46:10;;;;;;;8.32;1.95;;;33.40;28.30;;;;;;5034925;28;20065;-70
2021/09/16 09:48:39;;;;;;;6.25;1.95;;;33.50;28.80;;;;;;5034717;28;20040;-70
2021/09/16 09:51:06;;;;;;;6.88;2.00;;;33.60;28.60;;;;;;5035199;28;20071;-70
2021/09/16 09:53:41;;;;;;;4.80;2.10;;;33.80;28.80;;;;;;5032580;28;20087;-70
2021/09/16 09:56:15;;;;;;;5.30;1.90;;;33.90;29.00;;;;;;5034372;28;20080;-69
2021/09/16 09:58:41;;;;;;;4.90;1.98;;;33.80;28.80;;;;;;5033482;28;20033;-70
2021/09/16 10:01:27;;;;;;;3.60;1.63;;;33.70;28.90;;;;;;5034995;28;20079;-71
2021/09/16 10:03:53;;;;;;;4.43;1.60;;;33.70;29.40;;;;;;5034327;28;20100;-70
2021/09/16 10:06:19;;;;;;;2.95;1.50;;;33.60;29.40;;;;;;5034738;28;20786;-70
2021/09/16 10:09:09;;;;;;;5.85;1.90;;;33.60;29.10;;;;;;5035215;28;20116;-70
2021/09/16 10:11:49;;;;;;;3.78;1.58;;;33.70;29.40;;;;;;5033449;28;20092;-70
2021/09/16 10:14:15;;;;;;;6.07;1.60;;;33.80;29.40;;;;;;5034184;28;20108;-70
2021/09/16 10:16:42;;;;;;;1.85;1.02;;;34.00;29.40;;;;;;5032786;28;20033;-70
2021/09/16 10:19:07;;;;;;;2.22;1.25;;;34.00;29.20;;;;;;5033238;28;20025;-69
2021/09/16 10:21:34;;;;;;;5.68;1.35;;;33.80;28.90;;;;;;5034112;28;20048;-70
2021/09/16 10:24:01;;;;;;;2.53;1.48;;;33.90;29.10;;;;;;5034419;28;20071;-70
2021/09/16 10:26:35;;;;;;;7.05;2.13;;;33.90;28.90;;;;;;5033930;28;20076;-73
2021/09/16 10:29:03;;;;;;;4.32;1.10;;;34.00;29.00;;;;;;5033868;28;20048;-70
2021/09/16 10:31:29;;;;;;;8.02;2.10;;;33.90;28.90;;;;;;5034377;28;20025;-70
2021/09/16 10:33:54;;;;;;;2.60;1.08;;;33.80;28.90;;;;;;5033961;28;20468;-70
2021/09/16 10:36:20;;;;;;;2.42;1.10;;;33.60;28.70;;;;;;5034084;28;20511;-70
2021/09/16 10:38:52;;;;;;;3.45;1.40;;;33.70;28.90;;;;;;5033771;28;20104;-74
2021/09/16 10:41:26;;;;;;;4.93;1.60;;;33.70;28.70;;;;;;5032480;28;20030;-70
2021/09/16 10:43:58;;;;;;;6.68;1.92;;;33.50;28.70;;;;;;5033928;28;20380;-71
2021/09/16 10:46:33;;;;;;;5.38;1.65;;;33.50;28.70;;;;;;5033018;28;20044;-70
2021/09/16 10:49:26;;;;;;;4.65;2.35;;;33.40;28.90;;;;;;5032502;28;20029;-71
2021/09/16 10:51:56;;;;;;;6.68;1.73;;;33.30;29.00;;;;;;5032123;28;20029;-70
2021/09/16 10:54:26;;;;;;;3.90;1.50;;;33.30;29.00;;;;;;5032522;28;20025;-70
2021/09/16 10:56:58;;;;;;;10.55;2.60;;;33.20;29.10;;;;;;5033646;28;20025;-70
2021/09/16 10:59:44;;;;;;;5.82;2.30;;;33.30;29.30;;;;;;5032297;28;20090;-70
2021/09/16 11:02:09;;;;;;;4.18;1.88;;;33.50;29.30;;;;;;5032265;28;20033;-69
2021/09/16 11:05:10;;;;;;;6.80;2.10;;;33.60;29.10;;;;;;5033440;28;20049;-69
2021/09/16 11:07:39;;;;;;;4.97;1.90;;;33.70;28.90;;;;;;5032824;28;20049;-69
2021/09/16 11:10:13;;;;;;;6.72;1.83;;;33.50;29.20;;;;;;5032300;28;20458;-70
2021/09/16 11:12:43;;;;;;;4.18;1.50;;;33.50;29.10;;;;;;5033536;28;20104;-71
2021/09/16 11:15:10;;;;;;;4.60;1.90;;;33.40;29.10;;;;;;5032689;28;20384;-70
2021/09/16 11:17:40;;;;;;;5.43;1.83;;;33.50;29.50;;;;;;5032672;28;20041;-70
2021/09/16 11:20:07;;;;;;;12.38;2.20;;;33.60;29.40;;;;;;5034030;28;20101;-71
2021/09/16 11:22:33;;;;;;;5.20;2.00;;;33.50;29.40;;;;;;5032093;28;20038;-70
2021/09/16 11:24:59;;;;;;;3.03;1.67;;;33.50;29.20;;;;;;5033395;28;20029;-71
2021/09/16 11:27:43;;;;;;;2.85;1.65;;;33.40;29.40;;;;;;5031920;28;20037;-72
2021/09/16 11:30:18;;;;;;;4.22;1.90;;;33.40;29.20;;;;;;5032357;28;20025;-70
2021/09/16 11:32:45;;;;;;;4.15;2.00;;;33.00;29.00;;;;;;5031911;28;20056;-70
2021/09/16 11:35:12;;;;;;;4.68;1.90;;;32.70;29.10;;;;;;5033441;28;20030;-70
2021/09/16 11:37:44;;;;;;;4.72;2.03;;;32.60;29.30;;;;;;5031930;28;20021;-70
2021/09/16 11:40:19;;;;;;;4.47;2.75;;;32.60;29.70;;;;;;5031682;28;20040;-70
2021/09/16 11:42:52;;;;;;;4.60;2.00;;;32.80;29.70;;;;;;5032071;28;20071;-70
2021/09/16 11:45:26;;;;;;;5.07;2.08;;;33.00;29.80;;;;;;5032347;28;20379;-70
2021/09/16 11:47:57;;;;;;;4.15;2.00;;;32.90;29.70;;;;;;5033106;28;20155;-71
2021/09/16 11:50:45;;;;;;;5.45;2.13;;;33.10;29.80;;;;;;5031851;28;20041;-71
2021/09/16 11:53:24;;;;;;;5.00;1.77;;;33.10;29.90;;;;;;5033098;28;20504;-70
2021/09/16 11:56:03;;;;;;;4.05;1.92;;;32.80;29.60;;;;;;5032332;28;20483;-70
2021/09/16 11:58:35;;;;;;;5.47;2.20;;;32.40;29.80;;;;;;5031852;28;20356;-69
2021/09/16 12:01:02;;;;;;;6.07;2.30;;;32.10;30.10;;;;;;5032228;28;20029;-71
2021/09/16 12:03:31;;;;;;;4.72;2.10;;;31.70;30.30;;;;;;5032920;28;20030;-69
2021/09/16 12:06:00;;;;;;;5.03;2.03;;;31.40;30.70;;;;;;5032637;28;20126;-69
2021/09/16 12:08:26;;;;;;;5.40;2.08;;;31.00;30.60;;;;;;5031871;28;20108;-71
2021/09/16 12:10:54;;;;;;;6.68;2.50;;;30.50;30.90;;;;;;5033016;28;20054;-70
2021/09/16 12:13:22;;;;;;;7.00;2.55;;;30.10;31.70;;;;;;5033264;28;20460;-70
2021/09/16 12:15:53;;;;;;;7.45;2.80;;;29.80;32.40;;;;;;5033166;28;20380;-68
2021/09/16 12:18:18;;;;;;;6.75;2.63;;;29.60;32.40;;;;;;5034134;28;20310;-67
2021/09/16 12:20:46;;;;;;;5.85;2.85;;;29.30;32.80;;;;;;5035461;28;20048;-69
2021/09/16 12:23:14;;;;;;;6.05;3.00;;;28.90;33.10;;;;;;5036268;28;20025;-69
2021/09/16 12:26:01;;;;;;;7.68;3.15;;;28.40;33.40;;;;;;5034446;28;20034;-69
2021/09/16 12:28:29;;;;;;;8.23;3.50;;;27.90;33.70;;;;;;5037194;28;20033;-71
2021/09/16 12:30:55;;;;;;;7.85;3.22;;;27.40;33.90;;;;;;5036126;28;20026;-70
2021/09/16 12:33:40;;;;;;;6.15;3.72;;;27.20;34.40;;;;;;5036257;28;20112;-67